createdAt,value
2023-05-10T00:01:04.480Z,14.60
2023-05-10T00:03:32.105Z,15.70
2023-05-10T00:05:59.866Z,17.10
2023-05-10T00:08:27.809Z,15.70
2023-05-10T00:10:55.232Z,17.90
2023-05-10T00:13:22.970Z,16.00
2023-05-10T00:15:51.647Z,16.70
2023-05-10T00:18:19.745Z,19.30
2023-05-10T00:20:47.071Z,17.80
2023-05-10T00:23:16.249Z,16.90
2023-05-10T00:25:43.922Z,16.20
2023-05-10T00:28:11.192Z,14.90
2023-05-10T00:30:38.718Z,17.40
2023-05-10T00:33:06.489Z,16.40
2023-05-10T00:35:34.881Z,17.40
2023-05-10T00:38:03.267Z,15.60
2023-05-10T00:40:31.277Z,15.90
2023-05-10T00:43:01.969Z,18.40
2023-05-10T00:45:31.969Z,15.50
2023-05-10T00:48:02.870Z,24.30
2023-05-10T00:50:32.420Z,15.60
2023-05-10T00:53:03.565Z,14.90
2023-05-10T00:55:31.705Z,14.00
2023-05-10T00:57:59.789Z,14.40
2023-05-10T01:00:28.366Z,13.40
2023-05-10T01:02:57.426Z,12.40
2023-05-10T01:05:25.611Z,15.70
2023-05-10T01:07:53.500Z,16.00
2023-05-10T01:10:21.178Z,18.10
2023-05-10T01:12:49.135Z,17.20
2023-05-10T01:15:18.868Z,15.20
2023-05-10T01:17:48.125Z,20.00
2023-05-10T01:20:16.544Z,14.30
2023-05-10T01:23:03.102Z,12.30
2023-05-10T01:25:48.816Z,15.50
2023-05-10T01:28:38.421Z,11.90
2023-05-10T01:31:31.495Z,11.80
2023-05-10T01:34:22.399Z,11.50
2023-05-10T01:37:02.296Z,11.80
2023-05-10T01:39:50.853Z,10.60
2023-05-10T01:42:22.328Z,11.50
2023-05-10T01:45:15.661Z,12.90
2023-05-10T01:47:45.490Z,10.70
2023-05-10T01:50:21.020Z,10.90
2023-05-10T01:52:55.450Z,10.10
2023-05-10T01:55:27.167Z,9.90
2023-05-10T01:58:03.776Z,9.10
2023-05-10T02:00:32.992Z,11.60
2023-05-10T02:03:02.462Z,10.20
2023-05-10T02:05:32.824Z,9.10
2023-05-10T02:08:02.298Z,9.50
2023-05-10T02:10:31.233Z,10.80
2023-05-10T02:13:00.700Z,11.10
2023-05-10T02:15:29.512Z,9.70
2023-05-10T02:17:59.406Z,8.60
2023-05-10T02:20:27.093Z,11.50
2023-05-10T02:22:57.026Z,9.30
2023-05-10T02:27:56.676Z,10.80
2023-05-10T02:30:25.815Z,10.80
2023-05-10T02:32:54.115Z,8.20
2023-05-10T02:35:23.045Z,7.80
2023-05-10T02:37:52.216Z,9.70
2023-05-10T02:40:22.095Z,6.70
2023-05-10T02:42:53.494Z,11.20
2023-05-10T02:45:26.936Z,6.70
2023-05-10T02:47:55.352Z,8.80
2023-05-10T02:50:26.498Z,8.30
2023-05-10T02:53:10.061Z,8.50
2023-05-10T02:55:40.115Z,8.70
2023-05-10T02:58:07.713Z,9.40
2023-05-10T03:00:36.519Z,6.90
2023-05-10T03:03:04.202Z,11.20
2023-05-10T03:05:32.059Z,7.40
2023-05-10T03:08:04.902Z,7.40
2023-05-10T03:10:39.028Z,7.00
2023-05-10T03:13:40.805Z,9.40
2023-05-10T03:16:48.310Z,8.80
2023-05-10T03:19:27.477Z,9.30
2023-05-10T03:22:00.231Z,13.00
2023-05-10T03:24:31.066Z,7.40
2023-05-10T03:27:03.543Z,8.30
2023-05-10T03:29:32.525Z,7.70
2023-05-10T03:32:00.577Z,9.10
2023-05-10T03:34:32.021Z,9.40
2023-05-10T03:37:00.354Z,8.60
2023-05-10T03:39:29.771Z,13.20
2023-05-10T03:44:26.908Z,10.40
2023-05-10T03:46:54.645Z,14.60
2023-05-10T03:49:22.499Z,10.60
2023-05-10T03:51:50.016Z,13.30
2023-05-10T03:54:17.382Z,10.70
2023-05-10T03:56:45.352Z,13.00
2023-05-10T03:59:13.224Z,12.90
2023-05-10T04:01:40.955Z,9.90
2023-05-10T04:04:10.546Z,9.20
2023-05-10T04:06:38.929Z,10.20
2023-05-10T04:09:06.949Z,9.10
2023-05-10T04:11:34.727Z,8.90
2023-05-10T04:14:02.816Z,11.30
2023-05-10T04:16:30.294Z,15.50
2023-05-10T04:18:58.066Z,9.90
2023-05-10T04:21:25.560Z,7.80
2023-05-10T04:23:53.106Z,6.80
2023-05-10T04:26:25.665Z,7.00
2023-05-10T04:28:53.415Z,9.00
2023-05-10T04:31:20.796Z,8.00
2023-05-10T04:33:48.639Z,7.30
2023-05-10T04:36:24.654Z,7.70
2023-05-10T04:38:52.833Z,13.20
2023-05-10T04:41:21.257Z,11.60
2023-05-10T04:43:50.912Z,11.20
2023-05-10T04:46:18.841Z,9.40
2023-05-10T04:48:46.323Z,8.30
2023-05-10T04:51:14.170Z,10.70
2023-05-10T04:53:44.656Z,10.90
2023-05-10T04:56:17.690Z,11.40
2023-05-10T04:58:46.623Z,12.70
2023-05-10T05:01:13.935Z,11.30
2023-05-10T05:03:41.696Z,12.50
2023-05-10T05:07:00.997Z,9.20
2023-05-10T05:09:28.854Z,8.00
2023-05-10T05:11:56.324Z,8.40
2023-05-10T05:14:25.756Z,8.70
2023-05-10T05:16:53.434Z,9.10
2023-05-10T05:19:23.131Z,8.00
2023-05-10T05:21:51.469Z,7.00
2023-05-10T05:24:19.020Z,7.50
2023-05-10T05:26:46.862Z,9.60
2023-05-10T05:29:14.661Z,6.30
2023-05-10T05:31:42.411Z,9.90
2023-05-10T05:34:10.134Z,10.40
2023-05-10T05:36:40.625Z,7.90
2023-05-10T05:39:09.971Z,11.40
2023-05-10T05:41:37.568Z,7.20
2023-05-10T05:44:05.466Z,12.50
2023-05-10T05:46:33.781Z,9.20
2023-05-10T05:49:01.990Z,5.40
2023-05-10T05:51:29.709Z,8.70
2023-05-10T05:54:05.013Z,9.50
2023-05-10T05:56:45.472Z,11.50
2023-05-10T05:59:13.498Z,12.40
2023-05-10T06:01:41.833Z,7.20
2023-05-10T06:04:10.179Z,11.50
2023-05-10T06:07:20.047Z,5.80
2023-05-10T06:09:48.652Z,9.80
2023-05-10T06:12:19.169Z,31.70
2023-05-10T06:14:47.545Z,11.70
2023-05-10T06:17:19.611Z,8.40
2023-05-10T06:19:49.737Z,7.40
2023-05-10T06:22:17.692Z,8.10
2023-05-10T06:24:45.363Z,11.90
2023-05-10T06:27:15.467Z,9.00
2023-05-10T06:29:43.723Z,7.70
2023-05-10T06:32:12.238Z,6.90
2023-05-10T06:34:43.693Z,8.40
2023-05-10T06:37:44.014Z,6.20
2023-05-10T06:40:17.642Z,11.70
2023-05-10T06:43:47.994Z,11.70
2023-05-10T06:46:17.710Z,7.50
2023-05-10T06:49:10.419Z,13.60
2023-05-10T06:51:57.279Z,8.00
2023-05-10T06:54:31.558Z,11.00
2023-05-10T06:57:00.081Z,9.60
2023-05-10T07:01:56.528Z,8.00
2023-05-10T07:04:24.769Z,5.60
2023-05-10T07:06:55.301Z,6.20
2023-05-10T07:09:22.950Z,5.70
2023-05-10T07:11:50.801Z,5.20
2023-05-10T07:14:58.468Z,8.10
2023-05-10T07:17:30.014Z,15.20
2023-05-10T07:20:19.375Z,10.20
2023-05-10T07:23:05.776Z,8.50
2023-05-10T07:26:03.744Z,6.70
2023-05-10T07:29:18.048Z,4.00
2023-05-10T07:32:18.117Z,7.20
2023-05-10T07:38:08.321Z,6.80
2023-05-10T07:40:44.311Z,5.60
2023-05-10T07:43:32.087Z,3.90
2023-05-10T07:46:13.074Z,6.10
2023-05-10T07:50:03.090Z,8.60
2023-05-10T07:52:42.910Z,5.90
2023-05-10T07:55:35.585Z,5.90
2023-05-10T07:58:27.884Z,5.90
2023-05-10T08:01:11.331Z,9.30
2023-05-10T08:04:21.150Z,7.40
2023-05-10T08:07:02.974Z,9.20
2023-05-10T08:09:35.147Z,8.10
2023-05-10T08:14:42.770Z,7.90
2023-05-10T08:17:17.335Z,3.60
2023-05-10T08:20:08.458Z,5.30
2023-05-10T08:23:21.926Z,6.10
2023-05-10T08:26:11.453Z,7.20
2023-05-10T08:28:51.950Z,5.70
2023-05-10T08:31:44.545Z,7.30
2023-05-10T08:34:12.785Z,4.50
2023-05-10T08:36:43.621Z,5.30
2023-05-10T08:39:26.782Z,7.40
2023-05-10T08:42:05.459Z,6.80
2023-05-10T08:44:42.704Z,10.90
2023-05-10T08:47:12.573Z,5.00
2023-05-10T08:49:44.855Z,7.60
2023-05-10T08:52:15.929Z,7.10
2023-05-10T08:54:45.502Z,7.20
2023-05-10T08:57:15.140Z,6.00
2023-05-10T08:59:44.214Z,6.90
2023-05-10T09:02:14.120Z,6.90
2023-05-10T09:04:42.756Z,8.30
2023-05-10T09:07:11.883Z,5.50
2023-05-10T09:09:40.019Z,8.90
2023-05-10T09:12:12.177Z,5.70
2023-05-10T09:14:40.681Z,8.60
2023-05-10T09:17:10.774Z,7.80
2023-05-10T09:19:39.203Z,5.70
2023-05-10T09:22:07.113Z,9.80
2023-05-10T09:24:34.734Z,8.30
2023-05-10T09:27:02.441Z,7.80
2023-05-10T09:29:49.030Z,4.80
2023-05-10T09:32:16.900Z,5.00
2023-05-10T09:34:45.564Z,8.10
2023-05-10T09:37:14.202Z,7.00
2023-05-10T09:39:42.130Z,3.70
2023-05-10T09:42:19.414Z,6.50
2023-05-10T09:44:48.732Z,4.30
2023-05-10T09:47:19.643Z,4.30
2023-05-10T09:49:51.953Z,5.90
2023-05-10T09:52:23.299Z,3.80
2023-05-10T09:55:08.973Z,4.70
2023-05-10T09:58:08.545Z,8.30
2023-05-10T10:00:41.926Z,5.40
2023-05-10T10:03:16.170Z,8.40
2023-05-10T10:05:45.601Z,8.80
2023-05-10T10:08:24.135Z,6.50
2023-05-10T10:11:09.969Z,7.40
2023-05-10T10:14:04.440Z,5.50
2023-05-10T10:16:34.960Z,7.00
2023-05-10T10:19:02.976Z,6.30
2023-05-10T10:21:51.079Z,4.60
2023-05-10T10:24:28.709Z,8.30
2023-05-10T10:28:03.297Z,5.20
2023-05-10T10:31:31.512Z,10.90
2023-05-10T10:34:09.581Z,6.50
2023-05-10T10:36:51.554Z,4.10
2023-05-10T10:39:26.965Z,7.50
2023-05-10T10:42:47.133Z,7.40
2023-05-10T10:45:42.528Z,6.70
2023-05-10T10:49:16.092Z,8.00
2023-05-10T10:52:38.523Z,4.10
2023-05-10T10:55:33.821Z,6.10
2023-05-10T10:58:09.716Z,8.70
2023-05-10T11:01:46.145Z,4.50
2023-05-10T11:04:51.097Z,7.90
2023-05-10T11:07:43.666Z,7.60
2023-05-10T11:11:58.209Z,6.20
2023-05-10T11:21:31.711Z,6.50
2023-05-10T11:24:16.181Z,5.70
2023-05-10T11:27:42.613Z,5.00
2023-05-10T11:30:30.415Z,4.40
2023-05-10T11:56:29.232Z,6.90
2023-05-10T12:20:41.758Z,5.80
2023-05-10T12:23:11.159Z,4.00
2023-05-10T12:25:40.437Z,5.90
2023-05-10T12:28:10.582Z,3.90
2023-05-10T12:30:39.171Z,3.90
2023-05-10T12:33:21.299Z,6.10
2023-05-10T12:35:55.024Z,7.50
2023-05-10T12:38:44.077Z,10.00
2023-05-10T12:41:13.866Z,8.90
2023-05-10T12:43:43.919Z,7.00
2023-05-10T12:46:13.619Z,8.70
2023-05-10T12:49:07.665Z,4.10
2023-05-10T12:51:38.812Z,6.20
2023-05-10T12:54:07.242Z,6.20
2023-05-10T12:56:34.937Z,5.90
2023-05-10T12:59:02.608Z,10.50
2023-05-10T13:01:31.116Z,7.80
2023-05-10T13:03:58.725Z,4.70
2023-05-10T13:06:28.467Z,12.40
2023-05-10T13:09:12.072Z,4.80
2023-05-10T13:15:22.819Z,7.40
2023-05-10T13:18:00.907Z,7.30
2023-05-10T13:20:31.537Z,10.10
2023-05-10T13:23:04.703Z,6.30
2023-05-10T13:25:36.451Z,7.30
2023-05-10T13:28:06.493Z,11.30
2023-05-10T13:30:34.524Z,6.50
2023-05-10T13:33:02.532Z,3.90
2023-05-10T13:35:30.513Z,10.30
2023-05-10T13:38:01.980Z,7.80
2023-05-10T13:40:32.515Z,6.40
2023-05-10T13:43:08.263Z,4.30
2023-05-10T13:45:40.067Z,6.20
2023-05-10T13:48:16.594Z,5.80
2023-05-10T13:50:47.298Z,5.80
2023-05-10T13:53:30.412Z,3.40
2023-05-10T13:56:57.044Z,8.50
2023-05-10T14:01:08.665Z,5.80
2023-05-10T14:05:07.615Z,6.50
2023-05-10T14:08:10.503Z,5.60
2023-05-10T14:11:25.318Z,7.20
2023-05-10T14:14:03.710Z,12.70
2023-05-10T14:17:36.434Z,6.50
2023-05-10T14:21:19.278Z,6.20
2023-05-10T14:25:08.191Z,3.40
2023-05-10T14:28:34.617Z,4.80
2023-05-10T14:32:14.020Z,3.50
2023-05-10T14:35:47.664Z,5.60
2023-05-10T14:38:39.705Z,6.80
2023-05-10T14:41:26.249Z,8.90
2023-05-10T14:43:59.487Z,14.00
2023-05-10T14:46:35.257Z,13.20
2023-05-10T14:49:03.567Z,3.70
2023-05-10T14:51:40.717Z,10.60
2023-05-10T14:55:08.830Z,7.00
2023-05-10T14:57:40.406Z,6.00
2023-05-10T15:00:08.634Z,5.30
2023-05-10T15:02:40.074Z,8.40
2023-05-10T15:05:11.553Z,6.90
2023-05-10T15:07:46.527Z,4.70
2023-05-10T15:10:15.293Z,4.30
2023-05-10T15:12:42.844Z,5.50
2023-05-10T15:17:43.367Z,4.50
2023-05-10T15:20:26.213Z,3.20
2023-05-10T15:23:07.041Z,8.70
2023-05-10T15:25:38.893Z,6.70
2023-05-10T15:28:10.778Z,21.10
2023-05-10T15:30:38.692Z,4.30
2023-05-10T15:33:46.653Z,7.80
2023-05-10T15:36:10.314Z,4.60
2023-05-10T15:38:46.047Z,7.70
2023-05-10T15:41:16.471Z,5.30
2023-05-10T15:43:50.001Z,7.10
2023-05-10T15:46:19.833Z,5.20
2023-05-10T15:48:47.587Z,9.00
2023-05-10T15:51:19.676Z,6.60
2023-05-10T15:54:05.420Z,8.90
2023-05-10T15:56:36.358Z,10.80
2023-05-10T15:59:05.792Z,8.50
2023-05-10T16:01:35.264Z,5.20
2023-05-10T16:04:04.204Z,6.40
2023-05-10T16:06:32.764Z,8.00
2023-05-10T16:09:22.432Z,9.30
2023-05-10T16:12:02.364Z,7.00
2023-05-10T16:14:30.552Z,7.80
2023-05-10T16:16:59.703Z,6.70
2023-05-10T16:19:36.658Z,8.20
2023-05-10T16:22:08.300Z,11.10
2023-05-10T16:24:40.894Z,12.80
2023-05-10T16:27:18.126Z,11.80
2023-05-10T16:29:56.245Z,11.10
2023-05-10T16:32:30.653Z,7.90
2023-05-10T16:35:00.467Z,11.50
2023-05-10T16:37:43.730Z,8.50
2023-05-10T16:40:15.586Z,9.10
2023-05-10T16:42:49.396Z,10.50
2023-05-10T16:45:17.574Z,8.80
2023-05-10T16:47:47.149Z,14.90
2023-05-10T16:50:55.768Z,16.70
2023-05-10T16:53:41.284Z,6.90
2023-05-10T16:56:18.662Z,12.30
2023-05-10T16:58:49.832Z,9.80
2023-05-10T17:01:18.922Z,14.70
2023-05-10T17:03:56.329Z,13.60
2023-05-10T17:06:48.500Z,15.20
2023-05-10T17:09:41.734Z,11.20
2023-05-10T17:12:50.192Z,8.70
2023-05-10T17:15:45.125Z,9.50
2023-05-10T17:19:01.021Z,10.00
2023-05-10T17:22:22.401Z,9.80
2023-05-10T17:25:32.935Z,16.80
2023-05-10T17:28:56.945Z,13.60
2023-05-10T17:31:47.702Z,11.40
2023-05-10T17:34:29.513Z,10.40
2023-05-10T17:37:08.062Z,11.60
2023-05-10T17:40:19.930Z,15.00
2023-05-10T17:43:34.104Z,15.30
2023-05-10T17:47:05.481Z,22.00
2023-05-10T17:49:35.943Z,10.60
2023-05-10T17:52:06.768Z,13.70
2023-05-10T17:55:28.978Z,9.90
2023-05-10T17:59:00.508Z,14.10
2023-05-10T18:02:06.647Z,15.90
2023-05-10T18:04:57.493Z,13.10
2023-05-10T18:08:24.937Z,15.90
2023-05-10T18:11:00.221Z,20.70
2023-05-10T18:13:38.378Z,16.30
2023-05-10T18:16:29.195Z,13.00
2023-05-10T18:19:00.923Z,12.00
2023-05-10T18:21:55.018Z,8.40
2023-05-10T18:24:39.067Z,8.80
2023-05-10T18:27:09.199Z,10.30
2023-05-10T18:29:49.102Z,8.80
2023-05-10T18:32:17.831Z,13.10
2023-05-10T18:34:45.524Z,12.80
2023-05-10T18:37:13.616Z,11.40
2023-05-10T18:39:42.513Z,9.80
2023-05-10T18:42:11.094Z,10.00
2023-05-10T18:44:39.899Z,9.60
2023-05-10T18:47:07.960Z,12.80
2023-05-10T18:49:35.890Z,11.30
2023-05-10T18:52:03.758Z,12.10
2023-05-10T18:54:31.145Z,7.80
2023-05-10T19:03:53.890Z,9.50
2023-05-10T19:06:47.721Z,11.90
2023-05-10T19:09:19.996Z,18.30
2023-05-10T19:11:50.003Z,19.00
2023-05-10T19:14:17.910Z,25.10
2023-05-10T19:16:45.388Z,32.10
2023-05-10T19:19:23.005Z,34.90
2023-05-10T19:21:51.837Z,25.10
2023-05-10T19:24:24.138Z,26.50
2023-05-10T19:27:36.849Z,23.70
2023-05-10T19:31:08.080Z,25.60
2023-05-10T19:34:00.536Z,61.80
2023-05-10T19:36:35.095Z,129.30
2023-05-10T19:39:03.781Z,52.80
2023-05-10T19:41:33.164Z,50.30
2023-05-10T19:44:00.816Z,25.20
2023-05-10T19:46:28.453Z,15.90
2023-05-10T19:48:56.048Z,14.20
2023-05-10T19:51:23.754Z,13.30
2023-05-10T19:53:51.102Z,12.00
2023-05-10T19:56:23.225Z,10.90
2023-05-10T19:58:50.652Z,15.00
2023-05-10T20:01:20.122Z,12.40
2023-05-10T20:03:50.079Z,11.60
2023-05-10T20:06:17.408Z,11.00
2023-05-10T20:08:46.078Z,11.60
2023-05-10T20:11:13.711Z,16.40
2023-05-10T20:13:41.064Z,15.60
2023-05-10T20:16:09.209Z,15.90
2023-05-10T20:18:37.757Z,13.20
2023-05-10T20:21:05.286Z,15.40
2023-05-10T20:23:33.351Z,19.70
2023-05-10T20:26:01.094Z,16.60
2023-05-10T20:28:29.416Z,22.10
2023-05-10T20:30:57.935Z,20.20
2023-05-10T20:33:26.054Z,16.70
2023-05-10T20:35:57.399Z,19.80
2023-05-10T20:38:25.291Z,11.90
2023-05-10T20:40:54.514Z,11.80
2023-05-10T20:43:22.046Z,17.80
2023-05-10T20:45:49.794Z,13.10
2023-05-10T20:48:17.509Z,10.10
2023-05-10T20:50:45.492Z,11.20
2023-05-10T20:53:53.150Z,9.00
2023-05-10T20:57:05.382Z,10.30
2023-05-10T21:00:43.733Z,23.40
2023-05-10T21:03:33.163Z,11.90
2023-05-10T21:06:10.710Z,12.40
2023-05-10T21:09:28.311Z,9.70
2023-05-10T21:12:00.176Z,9.30
2023-05-10T21:14:54.432Z,9.50
2023-05-10T21:17:22.756Z,9.50
2023-05-10T21:19:50.379Z,9.80
2023-05-10T21:22:18.451Z,11.50
2023-05-10T21:24:47.122Z,10.50
2023-05-10T21:27:14.909Z,17.00
2023-05-10T21:29:42.203Z,11.60
2023-05-10T21:32:10.363Z,11.10
2023-05-10T21:34:38.258Z,9.40
2023-05-10T21:37:05.652Z,8.10
2023-05-10T21:39:33.129Z,12.50
2023-05-10T21:42:00.911Z,9.60
2023-05-10T21:44:28.282Z,10.00
2023-05-10T21:46:56.512Z,10.00
2023-05-10T21:49:25.555Z,16.90
2023-05-10T21:51:53.091Z,14.40
2023-05-10T21:54:20.754Z,18.20
2023-05-10T21:56:48.851Z,54.10
2023-05-10T21:59:18.273Z,18.10
2023-05-10T22:01:45.895Z,11.90
2023-05-10T22:04:13.710Z,15.00
2023-05-10T22:06:41.203Z,12.80
2023-05-10T22:09:09.883Z,8.00
2023-05-10T22:11:40.517Z,11.30
2023-05-10T22:14:07.865Z,7.60
2023-05-10T22:16:36.953Z,9.10
2023-05-10T22:19:04.756Z,13.50
2023-05-10T22:21:32.283Z,9.90
2023-05-10T22:24:00.169Z,9.80
2023-05-10T22:26:27.731Z,12.60
2023-05-10T22:28:55.064Z,11.90
2023-05-10T22:31:22.535Z,11.30
2023-05-10T22:33:50.589Z,12.20
2023-05-10T22:36:17.842Z,11.60
2023-05-10T22:38:45.733Z,11.90
2023-05-10T22:41:13.405Z,8.40
2023-05-10T22:43:40.762Z,10.70
2023-05-10T22:46:08.434Z,9.30
2023-05-10T22:48:36.024Z,9.10
2023-05-10T22:51:03.950Z,14.00
2023-05-10T22:53:31.794Z,8.40
2023-05-10T22:55:59.181Z,7.40
2023-05-10T22:58:26.738Z,9.00
2023-05-10T23:00:55.892Z,7.60
2023-05-10T23:03:24.431Z,10.80
2023-05-10T23:05:51.819Z,9.10
2023-05-10T23:08:22.274Z,9.90
2023-05-10T23:10:49.645Z,11.70
2023-05-10T23:13:19.725Z,10.20
2023-05-10T23:15:48.221Z,9.20
2023-05-10T23:18:16.214Z,7.80
2023-05-10T23:20:43.989Z,8.20
2023-05-10T23:23:11.482Z,8.90
2023-05-10T23:25:39.285Z,15.30
2023-05-10T23:28:06.624Z,7.90
2023-05-10T23:30:34.196Z,10.00
2023-05-10T23:33:02.709Z,10.40
2023-05-10T23:35:30.767Z,9.90
2023-05-10T23:37:58.313Z,9.40
2023-05-10T23:40:26.976Z,8.70
2023-05-10T23:42:55.060Z,8.60
2023-05-10T23:45:22.364Z,8.90
2023-05-10T23:47:49.939Z,12.10
2023-05-10T23:50:18.358Z,8.60
2023-05-10T23:52:46.108Z,12.00
2023-05-10T23:55:14.176Z,11.10
2023-05-10T23:57:41.455Z,11.70
